Terminal Aerodrome Forecast
Issued by NWS

Home | Current Version | Previous Version | Text Only | Print | Product List | Glossary On
Versions: 1 2 3 4 5 6 7 8 9 10 11 12 13 14 15 16 17 18 19 20 21 22
000
FTUS41 KPBZ 290500 CCA
TAFFKL
TAF COR
KFKL 290550Z 2906/3006 00000KT 6SM BR SKC
      TEMPO 2906/2910 2SM BR SCT002
     FM291500 14005KT P6SM SCT120
      AMD LTD TO CLD VIS AND WIND=

USA.gov is the U.S. government's official web portal to all federal, state and local government web resources and services.